createdAt,value
2017-06-24T00:00:01.729Z,17.31
2017-06-24T00:00:15.163Z,17.39
2017-06-24T00:00:28.118Z,17.42
2017-06-24T00:00:41.576Z,17.4
2017-06-24T00:00:55.012Z,17.42
2017-06-24T00:01:08.441Z,17.35
2017-06-24T00:01:22.137Z,17.42
2017-06-24T00:01:35.626Z,17.38
2017-06-24T00:01:49.068Z,17.38
2017-06-24T00:02:02.509Z,17.38
2017-06-24T00:02:15.418Z,17.36
2017-06-24T00:02:28.918Z,17.3
2017-06-24T00:02:42.020Z,17.35
2017-06-24T00:02:55.441Z,17.28
2017-06-24T00:03:08.896Z,17.25
2017-06-24T00:03:22.416Z,17.32
2017-06-24T00:03:35.353Z,17.36
2017-06-24T00:03:48.889Z,17.27
2017-06-24T00:04:02.419Z,17.28
2017-06-24T00:04:15.392Z,17.27
2017-06-24T00:04:28.869Z,17.24
2017-06-24T00:04:42.017Z,17.35
2017-06-24T00:04:54.423Z,17.3
2017-06-24T00:05:07.925Z,17.22
2017-06-24T00:05:21.382Z,17.27
2017-06-24T00:05:34.308Z,17.25
2017-06-24T00:05:47.798Z,17.22
2017-06-24T00:06:01.248Z,17.24
2017-06-24T00:06:14.760Z,17.27
2017-06-24T00:06:28.242Z,17.28
2017-06-24T00:06:40.097Z,17.28
2017-06-24T00:06:53.538Z,17.28
2017-06-24T00:07:06.454Z,17.27
2017-06-24T00:07:19.918Z,17.22
2017-06-24T00:07:33.411Z,17.27
2017-06-24T00:07:46.384Z,17.21
2017-06-24T00:07:59.917Z,17.18
2017-06-24T00:08:13.390Z,17.25
2017-06-24T00:08:27.032Z,17.27
2017-06-24T00:08:39.974Z,17.25
2017-06-24T00:08:53.403Z,17.21
2017-06-24T00:09:06.838Z,17.21
2017-06-24T00:09:20.283Z,17.24
2017-06-24T00:09:32.212Z,17.22
2017-06-24T00:09:45.666Z,17.25
2017-06-24T00:09:59.090Z,17.25
2017-06-24T00:10:12.597Z,17.24
2017-06-24T00:10:26.021Z,17.28
2017-06-24T00:10:38.983Z,17.22
2017-06-24T00:10:52.450Z,17.28
2017-06-24T00:11:05.426Z,17.32
2017-06-24T00:11:18.411Z,17.2
2017-06-24T00:11:31.838Z,17.27
2017-06-24T00:11:45.284Z,17.18
2017-06-24T00:11:58.705Z,17.18
2017-06-24T00:12:12.167Z,17.24
2017-06-24T00:12:25.674Z,17.24
2017-06-24T00:12:39.043Z,17.31
2017-06-24T00:12:52.481Z,17.28
2017-06-24T00:13:05.936Z,17.18
2017-06-24T00:13:18.878Z,17.28
2017-06-24T00:13:32.347Z,17.21
2017-06-24T00:13:47.258Z,17.22
2017-06-24T00:14:00.670Z,17.25
2017-06-24T00:14:14.163Z,17.18
2017-06-24T00:14:27.612Z,17.27
2017-06-24T00:14:40.505Z,17.27
2017-06-24T00:14:53.948Z,17.2
2017-06-24T00:15:07.393Z,17.27
2017-06-24T00:15:20.873Z,17.24
2017-06-24T00:15:34.352Z,17.18
2017-06-24T00:15:47.817Z,17.22
2017-06-24T00:16:01.246Z,17.22
2017-06-24T00:16:14.161Z,17.21
2017-06-24T00:16:27.070Z,17.22
2017-06-24T00:16:39.932Z,17.24
2017-06-24T00:16:52.910Z,17.27
2017-06-24T00:17:06.413Z,17.25
2017-06-24T00:17:19.336Z,17.24
2017-06-24T00:17:32.784Z,17.28
2017-06-24T00:17:46.401Z,17.31
2017-06-24T00:17:59.836Z,17.28
2017-06-24T00:18:13.303Z,17.22
2017-06-24T00:18:26.784Z,17.28
2017-06-24T00:18:39.677Z,17.25
2017-06-24T00:18:53.126Z,17.27
2017-06-24T00:19:06.063Z,17.28
2017-06-24T00:19:19.008Z,17.28
2017-06-24T00:19:32.724Z,17.2
2017-06-24T00:19:45.675Z,17.22
2017-06-24T00:19:59.106Z,17.24
2017-06-24T00:20:12.578Z,17.22
2017-06-24T00:20:26.057Z,17.25
2017-06-24T00:20:39.065Z,17.28
2017-06-24T00:20:52.000Z,17.22
2017-06-24T00:21:05.505Z,17.24
2017-06-24T00:21:18.956Z,17.28
2017-06-24T00:21:31.915Z,17.27
2017-06-24T00:21:44.827Z,17.27
2017-06-24T00:21:58.269Z,17.24
2017-06-24T00:22:11.736Z,17.25
2017-06-24T00:22:25.214Z,17.22
2017-06-24T00:22:38.128Z,17.27
2017-06-24T00:22:51.136Z,17.28
2017-06-24T00:23:04.052Z,17.3
2017-06-24T00:23:17.531Z,17.3
2017-06-24T00:23:31.048Z,17.24
2017-06-24T00:23:44.437Z,17.25
2017-06-24T00:23:57.382Z,17.28
2017-06-24T00:24:10.858Z,17.24
2017-06-24T00:24:24.283Z,17.2
2017-06-24T00:24:37.713Z,17.22
2017-06-24T00:24:51.164Z,17.2
2017-06-24T00:25:04.689Z,17.2
2017-06-24T00:25:18.216Z,17.27
2017-06-24T00:25:31.634Z,17.27
2017-06-24T00:25:45.089Z,17.24
2017-06-24T00:25:58.584Z,17.24
2017-06-24T00:26:12.055Z,17.27
2017-06-24T00:26:25.007Z,17.18
2017-06-24T00:26:38.475Z,17.22
2017-06-24T00:26:51.961Z,17.2
2017-06-24T00:27:05.414Z,17.2
2017-06-24T00:27:18.853Z,17.2
2017-06-24T00:27:32.339Z,17.24
2017-06-24T00:27:45.803Z,17.24
2017-06-24T00:27:59.226Z,17.17
2017-06-24T00:28:12.654Z,17.24
2017-06-24T00:28:26.123Z,17.24
2017-06-24T00:28:39.559Z,17.17
2017-06-24T00:28:52.502Z,17.2
2017-06-24T00:29:06.008Z,17.2
2017-06-24T00:29:19.435Z,17.22
2017-06-24T00:29:32.893Z,17.17
2017-06-24T00:29:46.385Z,17.18
2017-06-24T00:29:59.339Z,17.12
2017-06-24T00:30:12.245Z,17.15
2017-06-24T00:30:25.719Z,17.13
2017-06-24T00:30:39.182Z,17.17
2017-06-24T00:30:52.700Z,17.2
2017-06-24T00:31:06.152Z,17.15
2017-06-24T00:31:19.634Z,17.15
2017-06-24T00:31:33.100Z,17.1
2017-06-24T00:31:46.576Z,17.15
2017-06-24T00:31:59.967Z,17.13
2017-06-24T00:32:12.887Z,17.1
2017-06-24T00:32:25.783Z,17.13
2017-06-24T00:32:38.694Z,17.09
2017-06-24T00:32:53.273Z,17.07
2017-06-24T00:33:06.704Z,17.05
2017-06-24T00:33:20.149Z,16.97
2017-06-24T00:33:33.648Z,17.13
2017-06-24T00:33:47.078Z,17.06
2017-06-24T00:34:00.018Z,17
2017-06-24T00:34:12.892Z,17.03
2017-06-24T00:34:25.845Z,17.06
2017-06-24T00:34:39.312Z,17.02
2017-06-24T00:34:52.753Z,17.07
2017-06-24T00:35:05.694Z,16.97
2017-06-24T00:35:18.705Z,16.97
2017-06-24T00:35:32.088Z,17.02
2017-06-24T00:35:44.979Z,16.97
2017-06-24T00:35:58.447Z,17.05
2017-06-24T00:36:11.459Z,16.97
2017-06-24T00:36:24.909Z,17.05
2017-06-24T00:36:38.377Z,17
2017-06-24T00:36:51.846Z,16.95
2017-06-24T00:37:05.313Z,16.91
2017-06-24T00:37:18.857Z,16.99
2017-06-24T00:37:32.305Z,17.02
2017-06-24T00:37:45.825Z,17.02
2017-06-24T00:37:59.281Z,17.03
2017-06-24T00:38:12.735Z,17
2017-06-24T00:38:26.235Z,17.06
2017-06-24T00:38:39.716Z,17.02
2017-06-24T00:38:53.202Z,16.97
2017-06-24T00:39:06.683Z,16.97
2017-06-24T00:39:19.621Z,17.02
2017-06-24T00:39:33.107Z,17
2017-06-24T00:39:46.540Z,16.99
2017-06-24T00:39:59.530Z,17.03
2017-06-24T00:40:12.467Z,17.03
2017-06-24T00:40:25.372Z,16.99
2017-06-24T00:40:38.300Z,16.99
2017-06-24T00:40:51.266Z,17.02
2017-06-24T00:41:04.703Z,17.02
2017-06-24T00:41:18.142Z,17.03
2017-06-24T00:41:31.070Z,17.03
2017-06-24T00:41:44.540Z,17.05
2017-06-24T00:41:58.025Z,16.95
2017-06-24T00:42:11.534Z,16.94
2017-06-24T00:42:23.947Z,16.95
2017-06-24T00:42:37.396Z,16.95
2017-06-24T00:42:50.816Z,17.02
2017-06-24T00:43:03.319Z,16.99
2017-06-24T00:43:16.802Z,16.94
2017-06-24T00:43:30.270Z,16.97
2017-06-24T00:43:43.725Z,16.99
2017-06-24T00:43:57.209Z,16.92
2017-06-24T00:44:10.164Z,16.97
2017-06-24T00:44:23.066Z,16.99
2017-06-24T00:44:36.519Z,17.03
2017-06-24T00:44:50.039Z,16.94
2017-06-24T00:45:03.520Z,16.91
2017-06-24T00:45:16.990Z,16.9
2017-06-24T00:45:30.459Z,16.92
2017-06-24T00:45:43.950Z,16.94
2017-06-24T00:45:56.871Z,16.97
2017-06-24T00:46:09.805Z,16.92
2017-06-24T00:46:23.470Z,16.95
2017-06-24T00:46:36.416Z,16.92
2017-06-24T00:46:49.436Z,16.88
2017-06-24T00:47:02.375Z,16.85
2017-06-24T00:47:15.291Z,16.92
2017-06-24T00:47:28.240Z,16.9
2017-06-24T00:47:41.662Z,16.9
2017-06-24T00:47:55.360Z,16.81
2017-06-24T00:48:08.781Z,16.85
2017-06-24T00:48:22.196Z,16.92
2017-06-24T00:48:35.120Z,16.84
2017-06-24T00:48:48.059Z,16.85
2017-06-24T00:49:01.543Z,16.87
2017-06-24T00:49:14.448Z,16.99
2017-06-24T00:49:27.892Z,16.9
2017-06-24T00:49:41.456Z,16.92
2017-06-24T00:49:54.887Z,16.95
2017-06-24T00:50:08.420Z,16.9
2017-06-24T00:50:21.326Z,16.92
2017-06-24T00:50:34.312Z,16.92
2017-06-24T00:50:47.748Z,16.91
2017-06-24T00:51:01.185Z,16.92
2017-06-24T00:51:14.652Z,16.9
2017-06-24T00:51:27.517Z,16.91
2017-06-24T00:51:41.183Z,16.92
2017-06-24T00:51:54.663Z,16.94
2017-06-24T00:52:08.139Z,17
2017-06-24T00:52:21.589Z,16.97
2017-06-24T00:52:35.015Z,16.95
2017-06-24T00:52:48.450Z,16.92
2017-06-24T00:53:01.925Z,16.95
2017-06-24T00:53:15.411Z,17.02
2017-06-24T00:53:28.982Z,17
2017-06-24T00:53:42.476Z,16.94
2017-06-24T00:53:56.027Z,17.03
2017-06-24T00:54:08.886Z,17
2017-06-24T00:54:22.316Z,17.03
2017-06-24T00:54:35.222Z,16.95
2017-06-24T00:54:48.161Z,16.99
2017-06-24T00:55:01.647Z,17.03
2017-06-24T00:55:15.056Z,17.02
2017-06-24T00:55:28.525Z,17.06
2017-06-24T00:55:41.975Z,17
2017-06-24T00:55:54.912Z,17.05
2017-06-24T00:56:08.396Z,17.12
2017-06-24T00:56:21.905Z,17.1
2017-06-24T00:56:35.366Z,17
2017-06-24T00:56:48.315Z,17.09
2017-06-24T00:57:01.791Z,17.03
2017-06-24T00:57:14.206Z,17.1
2017-06-24T00:57:27.665Z,17.02
2017-06-24T00:57:40.629Z,17.07
2017-06-24T00:57:54.133Z,17.07
2017-06-24T00:58:07.610Z,16.95
2017-06-24T00:58:21.047Z,17.02
2017-06-24T00:58:34.542Z,17.03
2017-06-24T00:58:47.975Z,16.99
2017-06-24T00:59:01.529Z,16.97
2017-06-24T00:59:15.005Z,16.99
2017-06-24T00:59:27.954Z,16.99
2017-06-24T00:59:41.405Z,16.99
2017-06-24T00:59:54.331Z,17.03
2017-06-24T01:00:07.775Z,17.03
2017-06-24T01:00:21.227Z,16.99
2017-06-24T01:00:34.146Z,16.99
2017-06-24T01:00:47.569Z,16.97
2017-06-24T01:01:01.061Z,17.03
2017-06-24T01:01:14.730Z,17.03
2017-06-24T01:01:28.195Z,17.05
2017-06-24T01:01:40.591Z,17.06
2017-06-24T01:01:54.043Z,17.03
2017-06-24T01:02:07.515Z,16.95
2017-06-24T01:02:20.953Z,16.99
2017-06-24T01:02:33.921Z,17.03
2017-06-24T01:02:47.413Z,16.99
2017-06-24T01:03:01.107Z,17
2017-06-24T01:03:14.551Z,16.99
2017-06-24T01:03:27.453Z,17
2017-06-24T01:03:40.978Z,17.03
2017-06-24T01:03:54.446Z,17.02
2017-06-24T01:04:07.902Z,16.97
2017-06-24T01:04:20.876Z,17
2017-06-24T01:04:33.274Z,16.95
2017-06-24T01:04:46.199Z,17.05
2017-06-24T01:04:59.624Z,16.97
2017-06-24T01:05:12.602Z,16.95
2017-06-24T01:05:26.067Z,16.97
2017-06-24T01:05:38.976Z,16.9
2017-06-24T01:05:51.381Z,16.99
2017-06-24T01:06:04.334Z,17
2017-06-24T01:06:17.781Z,16.99
2017-06-24T01:06:30.698Z,17
2017-06-24T01:06:44.133Z,16.97
2017-06-24T01:06:57.646Z,16.92
2017-06-24T01:07:10.562Z,16.97
2017-06-24T01:07:24.040Z,17
2017-06-24T01:07:36.945Z,16.99
2017-06-24T01:07:49.864Z,16.95
2017-06-24T01:08:02.814Z,17
2017-06-24T01:08:15.763Z,16.94
2017-06-24T01:08:29.198Z,16.97
2017-06-24T01:08:42.656Z,16.95
2017-06-24T01:08:56.050Z,17.05
2017-06-24T01:09:09.522Z,16.94
2017-06-24T01:09:22.985Z,17
2017-06-24T01:09:36.395Z,16.95
2017-06-24T01:09:49.849Z,17.05
2017-06-24T01:10:03.286Z,16.99
2017-06-24T01:10:16.833Z,16.97
2017-06-24T01:10:30.309Z,16.99
2017-06-24T01:10:43.214Z,16.99
2017-06-24T01:10:56.651Z,16.94
2017-06-24T01:11:10.123Z,17
2017-06-24T01:11:23.077Z,16.97
2017-06-24T01:11:36.502Z,17.03
2017-06-24T01:11:49.453Z,16.99
2017-06-24T01:12:02.859Z,16.9
2017-06-24T01:12:15.768Z,16.99
2017-06-24T01:12:28.710Z,16.97
2017-06-24T01:12:42.173Z,17.02
2017-06-24T01:12:55.608Z,16.99
2017-06-24T01:13:09.137Z,17.03
2017-06-24T01:13:22.588Z,17.02
2017-06-24T01:13:36.041Z,17.03
2017-06-24T01:13:48.912Z,17.02
2017-06-24T01:14:01.818Z,16.97
2017-06-24T01:14:15.229Z,17
2017-06-24T01:14:28.208Z,16.97
2017-06-24T01:14:41.660Z,17.02
2017-06-24T01:14:55.127Z,16.97
2017-06-24T01:15:08.109Z,17.03
2017-06-24T01:15:21.594Z,16.95
2017-06-24T01:15:35.111Z,16.99
2017-06-24T01:15:48.563Z,17
2017-06-24T01:16:02.036Z,17.05
2017-06-24T01:16:14.948Z,17
2017-06-24T01:16:28.367Z,17.05
2017-06-24T01:16:41.301Z,17
2017-06-24T01:16:54.248Z,16.99
2017-06-24T01:17:07.375Z,16.97
2017-06-24T01:17:20.848Z,17
2017-06-24T01:17:34.248Z,16.92
2017-06-24T01:17:47.715Z,17
2017-06-24T01:18:00.980Z,16.97
2017-06-24T01:18:14.412Z,16.95
2017-06-24T01:18:27.825Z,16.99
2017-06-24T01:18:41.287Z,16.97
2017-06-24T01:18:54.781Z,17
2017-06-24T01:19:08.342Z,16.92
2017-06-24T01:19:21.783Z,16.95
2017-06-24T01:19:35.204Z,16.95
2017-06-24T01:19:48.647Z,17.02
2017-06-24T01:20:02.084Z,16.97
2017-06-24T01:20:15.547Z,16.94
2017-06-24T01:20:29.023Z,16.94
2017-06-24T01:20:41.995Z,17.02
2017-06-24T01:20:55.452Z,16.97
2017-06-24T01:21:08.927Z,16.97
2017-06-24T01:21:22.429Z,16.97
2017-06-24T01:21:35.886Z,16.97
2017-06-24T01:21:49.288Z,16.95
2017-06-24T01:22:02.736Z,16.97
2017-06-24T01:22:15.663Z,16.97
2017-06-24T01:22:29.107Z,16.94
2017-06-24T01:22:42.020Z,16.99
2017-06-24T01:22:55.512Z,16.97
2017-06-24T01:23:09.012Z,16.92
2017-06-24T01:23:22.516Z,16.97
2017-06-24T01:23:35.966Z,17
2017-06-24T01:23:48.854Z,16.91
2017-06-24T01:24:01.812Z,16.97
2017-06-24T01:24:15.245Z,16.97
2017-06-24T01:24:28.186Z,16.92
2017-06-24T01:24:41.589Z,16.95
2017-06-24T01:24:55.080Z,16.92
2017-06-24T01:25:08.626Z,16.94
2017-06-24T01:25:21.605Z,16.87
2017-06-24T01:25:35.048Z,16.99
2017-06-24T01:25:48.533Z,17
2017-06-24T01:26:01.938Z,16.88
2017-06-24T01:26:15.457Z,16.9
2017-06-24T01:26:28.905Z,16.94
2017-06-24T01:26:42.300Z,16.94
2017-06-24T01:26:55.183Z,16.92
2017-06-24T01:27:08.188Z,16.95
2017-06-24T01:27:21.172Z,16.94
2017-06-24T01:27:36.081Z,16.92
2017-06-24T01:27:49.544Z,16.97
2017-06-24T01:28:03.053Z,16.9
2017-06-24T01:28:16.539Z,16.95
2017-06-24T01:28:29.992Z,16.85
2017-06-24T01:28:43.413Z,16.94
2017-06-24T01:28:56.304Z,16.97
2017-06-24T01:29:09.833Z,16.9
2017-06-24T01:29:22.750Z,16.94
2017-06-24T01:29:36.252Z,16.87
2017-06-24T01:29:49.243Z,16.88
2017-06-24T01:30:02.256Z,16.91
2017-06-24T01:30:15.757Z,16.9
2017-06-24T01:30:29.203Z,16.97
2017-06-24T01:30:42.686Z,16.81
2017-06-24T01:30:56.220Z,16.88
2017-06-24T01:31:08.668Z,16.82
2017-06-24T01:31:22.090Z,16.85
2017-06-24T01:31:35.073Z,16.82
2017-06-24T01:31:48.548Z,16.8
2017-06-24T01:32:01.470Z,16.87
2017-06-24T01:32:14.902Z,16.87
2017-06-24T01:32:28.339Z,16.85
2017-06-24T01:32:41.830Z,16.87
2017-06-24T01:32:55.297Z,16.88
2017-06-24T01:33:08.947Z,16.87
2017-06-24T01:33:22.620Z,16.87
2017-06-24T01:33:36.068Z,16.88
2017-06-24T01:33:49.526Z,16.85
2017-06-24T01:34:01.904Z,16.82
2017-06-24T01:34:15.337Z,16.85
2017-06-24T01:34:28.757Z,16.88
2017-06-24T01:34:41.664Z,16.76
2017-06-24T01:34:55.137Z,16.84
2017-06-24T01:35:08.122Z,16.84
2017-06-24T01:35:21.540Z,16.91
2017-06-24T01:35:34.991Z,16.82
2017-06-24T01:35:48.411Z,16.84
2017-06-24T01:36:01.866Z,16.8
2017-06-24T01:36:14.841Z,16.85
2017-06-24T01:36:28.344Z,16.9
2017-06-24T01:36:41.877Z,16.87
2017-06-24T01:36:55.065Z,16.87
2017-06-24T01:37:08.544Z,16.85
2017-06-24T01:37:21.997Z,16.76
2017-06-24T01:37:35.499Z,16.88
2017-06-24T01:37:48.979Z,16.81
2017-06-24T01:38:01.896Z,16.88
2017-06-24T01:38:14.794Z,16.81
2017-06-24T01:38:28.258Z,16.87
2017-06-24T01:38:41.713Z,16.88
2017-06-24T01:38:54.614Z,16.87
2017-06-24T01:39:08.080Z,16.9
2017-06-24T01:39:21.096Z,16.8
2017-06-24T01:39:34.597Z,16.76
2017-06-24T01:39:47.005Z,16.9
2017-06-24T01:40:00.442Z,16.85
2017-06-24T01:40:14.139Z,16.77
2017-06-24T01:40:27.071Z,16.84
2017-06-24T01:40:39.970Z,16.82
2017-06-24T01:40:53.461Z,16.73
2017-06-24T01:41:06.919Z,16.72
2017-06-24T01:41:20.572Z,16.81
2017-06-24T01:41:32.440Z,16.82
2017-06-24T01:41:45.883Z,16.85
2017-06-24T01:41:59.361Z,16.81
2017-06-24T01:42:11.764Z,16.76
2017-06-24T01:42:25.202Z,16.73
2017-06-24T01:42:38.712Z,16.8
2017-06-24T01:42:52.205Z,16.81
2017-06-24T01:43:05.141Z,16.76
2017-06-24T01:43:18.615Z,16.76
2017-06-24T01:43:32.115Z,16.82
2017-06-24T01:43:45.571Z,16.84
2017-06-24T01:43:59.298Z,16.84
2017-06-24T01:44:12.257Z,16.76
2017-06-24T01:44:25.264Z,16.77
2017-06-24T01:44:38.702Z,16.77
2017-06-24T01:44:52.210Z,16.76
2017-06-24T01:45:05.086Z,16.74
2017-06-24T01:45:18.034Z,16.85
2017-06-24T01:45:31.479Z,16.76
2017-06-24T01:45:44.921Z,16.85
2017-06-24T01:45:58.375Z,16.84
2017-06-24T01:46:11.861Z,16.81
2017-06-24T01:46:24.805Z,16.77
2017-06-24T01:46:38.245Z,16.76
2017-06-24T01:46:51.744Z,16.77
2017-06-24T01:47:05.217Z,16.72
2017-06-24T01:47:18.620Z,16.76
2017-06-24T01:47:32.036Z,16.82
2017-06-24T01:47:45.518Z,16.7
2017-06-24T01:47:58.405Z,16.74
2017-06-24T01:48:12.255Z,16.81
2017-06-24T01:48:25.743Z,16.73
2017-06-24T01:48:39.234Z,16.84
2017-06-24T01:48:52.127Z,16.66
2017-06-24T01:49:05.679Z,16.76
2017-06-24T01:49:19.149Z,16.69
2017-06-24T01:49:32.632Z,16.72
2017-06-24T01:49:46.088Z,16.77
2017-06-24T01:49:59.522Z,16.74
2017-06-24T01:50:12.992Z,16.73
2017-06-24T01:50:26.491Z,16.67
2017-06-24T01:50:39.947Z,16.66
2017-06-24T01:50:53.483Z,16.72
2017-06-24T01:51:06.984Z,16.65
2017-06-24T01:51:20.467Z,16.74
2017-06-24T01:51:33.944Z,16.72
2017-06-24T01:51:46.924Z,16.72
2017-06-24T01:52:00.364Z,16.73
2017-06-24T01:52:13.846Z,16.69
2017-06-24T01:52:26.782Z,16.62
2017-06-24T01:52:40.178Z,16.72
2017-06-24T01:52:53.603Z,16.66
2017-06-24T01:53:07.063Z,16.67
2017-06-24T01:53:20.542Z,16.74
2017-06-24T01:53:33.479Z,16.63
2017-06-24T01:53:46.912Z,16.67
2017-06-24T01:54:00.384Z,16.65
2017-06-24T01:54:13.819Z,16.73
2017-06-24T01:54:27.265Z,16.72
2017-06-24T01:54:40.899Z,16.73
2017-06-24T01:54:54.299Z,16.73
2017-06-24T01:55:07.820Z,16.63
2017-06-24T01:55:21.257Z,16.8
2017-06-24T01:55:34.713Z,16.66
2017-06-24T01:55:48.202Z,16.62
2017-06-24T01:56:01.680Z,16.72
2017-06-24T01:56:14.603Z,16.67
2017-06-24T01:56:28.029Z,16.76
2017-06-24T01:56:41.516Z,16.69
2017-06-24T01:56:55.248Z,16.66
2017-06-24T01:57:08.189Z,16.65
2017-06-24T01:57:21.644Z,16.67
2017-06-24T01:57:34.561Z,16.66
2017-06-24T01:57:47.997Z,16.77
2017-06-24T01:58:01.467Z,16.72
2017-06-24T01:58:14.921Z,16.63
2017-06-24T01:58:28.353Z,16.66
2017-06-24T01:58:41.303Z,16.74
2017-06-24T01:58:54.751Z,16.74
2017-06-24T01:59:08.223Z,16.72
2017-06-24T01:59:21.684Z,16.73
2017-06-24T01:59:35.165Z,16.69
2017-06-24T01:59:48.578Z,16.72
2017-06-24T02:00:02.008Z,16.69
2017-06-24T02:00:15.432Z,16.72
2017-06-24T02:00:28.609Z,16.73
2017-06-24T02:00:42.059Z,16.7
2017-06-24T02:00:55.476Z,16.58
2017-06-24T02:01:08.441Z,16.63
2017-06-24T02:01:21.841Z,16.65
2017-06-24T02:01:35.311Z,16.69
2017-06-24T02:01:48.659Z,16.74
2017-06-24T02:02:02.100Z,16.77
2017-06-24T02:02:15.589Z,16.7
2017-06-24T02:02:29.120Z,16.77
2017-06-24T02:02:42.550Z,16.7
2017-06-24T02:02:55.557Z,16.7
2017-06-24T02:03:09.049Z,16.72
2017-06-24T02:03:22.225Z,16.73
2017-06-24T02:03:35.171Z,16.7
2017-06-24T02:03:48.573Z,16.76
2017-06-24T02:04:02.002Z,16.84
2017-06-24T02:04:15.441Z,16.77
2017-06-24T02:04:28.855Z,16.74
2017-06-24T02:04:41.783Z,16.76
2017-06-24T02:04:54.762Z,16.76
2017-06-24T02:05:08.269Z,16.69
2017-06-24T02:05:21.671Z,16.77
2017-06-24T02:05:35.174Z,16.7
2017-06-24T02:05:48.629Z,16.85
2017-06-24T02:06:02.196Z,16.72
2017-06-24T02:06:15.694Z,16.84
2017-06-24T02:06:28.637Z,16.74
2017-06-24T02:06:41.540Z,16.84
2017-06-24T02:06:54.969Z,16.81
2017-06-24T02:07:07.880Z,16.77
2017-06-24T02:07:20.852Z,16.8
2017-06-24T02:07:34.297Z,16.77
2017-06-24T02:07:47.741Z,16.82
2017-06-24T02:08:01.173Z,16.73
2017-06-24T02:08:14.112Z,16.73
2017-06-24T02:08:27.628Z,16.73
2017-06-24T02:08:40.540Z,16.81
2017-06-24T02:08:53.465Z,16.74
2017-06-24T02:09:06.391Z,16.81
2017-06-24T02:09:19.869Z,16.85
2017-06-24T02:09:33.525Z,16.8
2017-06-24T02:09:46.939Z,16.77
2017-06-24T02:10:00.373Z,16.81
2017-06-24T02:10:13.914Z,16.8
2017-06-24T02:10:27.369Z,16.82
2017-06-24T02:10:40.767Z,16.81
2017-06-24T02:10:53.677Z,16.72
2017-06-24T02:11:06.585Z,16.69
2017-06-24T02:11:20.025Z,16.77
2017-06-24T02:11:33.557Z,16.81
2017-06-24T02:11:46.516Z,16.73
2017-06-24T02:11:59.956Z,16.81
2017-06-24T02:12:13.406Z,16.8
2017-06-24T02:12:26.320Z,16.73
2017-06-24T02:12:39.245Z,16.81
2017-06-24T02:12:52.659Z,16.84
2017-06-24T02:13:06.099Z,16.88
2017-06-24T02:13:19.086Z,16.85
2017-06-24T02:13:32.599Z,16.88
2017-06-24T02:13:45.632Z,16.82
2017-06-24T02:13:59.102Z,16.82
2017-06-24T02:14:12.554Z,16.76
2017-06-24T02:14:25.439Z,16.81
2017-06-24T02:14:38.919Z,16.81
2017-06-24T02:14:51.875Z,16.85
2017-06-24T02:15:05.347Z,16.88
2017-06-24T02:15:18.767Z,16.87
2017-06-24T02:15:32.248Z,16.84
2017-06-24T02:15:45.689Z,16.81
2017-06-24T02:15:59.106Z,16.8
2017-06-24T02:16:12.573Z,16.84
2017-06-24T02:16:26.060Z,16.84
2017-06-24T02:16:39.486Z,16.84
2017-06-24T02:16:52.914Z,16.8
2017-06-24T02:17:06.425Z,16.87
2017-06-24T02:17:19.333Z,16.82
2017-06-24T02:17:32.805Z,16.88
2017-06-24T02:17:46.280Z,16.87
2017-06-24T02:17:59.712Z,16.84
2017-06-24T02:18:13.213Z,16.85
2017-06-24T02:18:26.902Z,16.87
2017-06-24T02:18:40.378Z,16.82
2017-06-24T02:18:53.321Z,16.87
2017-06-24T02:19:06.811Z,16.8
2017-06-24T02:19:19.737Z,16.9
2017-06-24T02:19:33.175Z,16.85
2017-06-24T02:19:46.591Z,16.77
2017-06-24T02:20:00.039Z,16.85
2017-06-24T02:20:13.506Z,16.85
2017-06-24T02:20:26.970Z,16.81
2017-06-24T02:20:40.350Z,16.87
2017-06-24T02:20:54.098Z,16.88
2017-06-24T02:21:07.596Z,16.88
2017-06-24T02:21:21.025Z,16.81
2017-06-24T02:21:33.983Z,16.8
2017-06-24T02:21:47.372Z,16.88
2017-06-24T02:22:00.845Z,16.76
2017-06-24T02:22:14.340Z,16.9
2017-06-24T02:22:27.254Z,16.87
2017-06-24T02:22:40.734Z,16.77
2017-06-24T02:22:54.226Z,16.88
2017-06-24T02:23:07.657Z,16.84
2017-06-24T02:23:20.564Z,16.81
2017-06-24T02:23:34.004Z,16.84
2017-06-24T02:23:47.464Z,16.85
2017-06-24T02:24:00.923Z,16.84
2017-06-24T02:24:14.378Z,16.88
2017-06-24T02:24:27.812Z,16.88
2017-06-24T02:24:41.263Z,16.82
2017-06-24T02:24:54.734Z,16.88
2017-06-24T02:25:08.180Z,16.84
2017-06-24T02:25:21.619Z,16.84
2017-06-24T02:25:35.058Z,16.77
2017-06-24T02:25:48.461Z,16.9
2017-06-24T02:26:01.966Z,16.77
2017-06-24T02:26:15.616Z,16.74
2017-06-24T02:26:29.112Z,16.72
2017-06-24T02:26:42.568Z,16.8
2017-06-24T02:26:55.473Z,16.73
2017-06-24T02:27:08.979Z,16.76
2017-06-24T02:27:21.887Z,16.81
2017-06-24T02:27:34.786Z,16.84
2017-06-24T02:27:48.254Z,16.84
2017-06-24T02:28:01.688Z,16.76
2017-06-24T02:28:15.143Z,16.77
2017-06-24T02:28:28.610Z,16.74
2017-06-24T02:28:41.492Z,16.76
2017-06-24T02:28:54.426Z,16.82
2017-06-24T02:29:06.816Z,16.72
2017-06-24T02:29:19.744Z,16.7
2017-06-24T02:29:32.744Z,16.74
2017-06-24T02:29:46.167Z,16.72
2017-06-24T02:29:59.620Z,16.7
2017-06-24T02:30:12.600Z,16.66
2017-06-24T02:30:26.046Z,16.66
2017-06-24T02:30:39.547Z,16.72
2017-06-24T02:30:53.055Z,16.76
2017-06-24T02:31:06.559Z,16.76
2017-06-24T02:31:19.976Z,16.7
2017-06-24T02:31:33.459Z,16.7
2017-06-24T02:31:46.897Z,16.59
2017-06-24T02:32:00.388Z,16.7
2017-06-24T02:32:13.324Z,16.69
2017-06-24T02:32:25.782Z,16.69
2017-06-24T02:32:39.295Z,16.7
2017-06-24T02:32:52.220Z,16.65
2017-06-24T02:33:05.639Z,16.65
2017-06-24T02:33:19.059Z,16.73
2017-06-24T02:33:32.781Z,16.66
2017-06-24T02:33:46.245Z,16.69
2017-06-24T02:33:59.724Z,16.66
2017-06-24T02:34:13.298Z,16.59
2017-06-24T02:34:26.808Z,16.72
2017-06-24T02:34:40.303Z,16.66
2017-06-24T02:34:53.741Z,16.67
2017-06-24T02:35:07.239Z,16.67
2017-06-24T02:35:20.659Z,16.66
2017-06-24T02:35:34.092Z,16.72
2017-06-24T02:35:47.025Z,16.59
2017-06-24T02:36:00.522Z,16.72
2017-06-24T02:36:13.988Z,16.65
2017-06-24T02:36:26.918Z,16.66
2017-06-24T02:36:40.425Z,16.66
2017-06-24T02:36:53.876Z,16.59
2017-06-24T02:37:07.352Z,16.63
2017-06-24T02:37:20.845Z,16.69
2017-06-24T02:37:33.794Z,16.69
2017-06-24T02:37:47.254Z,16.69
2017-06-24T02:38:00.684Z,16.7
2017-06-24T02:38:13.565Z,16.58
2017-06-24T02:38:27.010Z,16.57
2017-06-24T02:38:40.562Z,16.7
2017-06-24T02:38:54.044Z,16.69
2017-06-24T02:39:07.517Z,16.62
2017-06-24T02:39:21.009Z,16.67
2017-06-24T02:39:34.501Z,16.65
2017-06-24T02:39:48.007Z,16.69
2017-06-24T02:40:01.411Z,16.65
2017-06-24T02:40:14.853Z,16.69
2017-06-24T02:40:28.360Z,16.67
2017-06-24T02:40:41.517Z,16.66
2017-06-24T02:40:54.444Z,16.54
2017-06-24T02:41:07.403Z,16.59
2017-06-24T02:41:20.849Z,16.66
2017-06-24T02:41:34.638Z,16.59
2017-06-24T02:41:48.137Z,16.59
2017-06-24T02:42:01.607Z,16.67
2017-06-24T02:42:15.013Z,16.67
2017-06-24T02:42:28.468Z,16.66
2017-06-24T02:42:41.395Z,16.62
2017-06-24T02:42:54.851Z,16.67
2017-06-24T02:43:07.834Z,16.62
2017-06-24T02:43:21.279Z,16.65
2017-06-24T02:43:34.702Z,16.62
2017-06-24T02:43:48.099Z,16.58
2017-06-24T02:44:01.639Z,16.69
2017-06-24T02:44:15.070Z,16.63
2017-06-24T02:44:28.561Z,16.66
2017-06-24T02:44:41.984Z,16.65
2017-06-24T02:44:55.414Z,16.67
2017-06-24T02:45:08.923Z,16.63
2017-06-24T02:45:22.361Z,16.63
2017-06-24T02:45:35.861Z,16.63
2017-06-24T02:45:49.266Z,16.67
2017-06-24T02:46:02.221Z,16.67
2017-06-24T02:46:15.669Z,16.62
2017-06-24T02:46:28.582Z,16.67
2017-06-24T02:46:42.002Z,16.66
2017-06-24T02:46:55.446Z,16.62
2017-06-24T02:47:08.919Z,16.62
2017-06-24T02:47:22.321Z,16.58
2017-06-24T02:47:35.776Z,16.59
2017-06-24T02:47:49.264Z,16.69
2017-06-24T02:48:02.761Z,16.58
2017-06-24T02:48:16.186Z,16.59
2017-06-24T02:48:29.660Z,16.59
2017-06-24T02:48:43.333Z,16.59
2017-06-24T02:48:56.830Z,16.58
2017-06-24T02:49:10.261Z,16.63
2017-06-24T02:49:23.709Z,16.59
2017-06-24T02:49:37.103Z,16.52
2017-06-24T02:49:50.568Z,16.58
2017-06-24T02:50:04.028Z,16.69
2017-06-24T02:50:17.484Z,16.65
2017-06-24T02:50:30.421Z,16.62
2017-06-24T02:50:43.889Z,16.69
2017-06-24T02:50:57.335Z,16.65
2017-06-24T02:51:10.272Z,16.58
2017-06-24T02:51:23.812Z,16.63
2017-06-24T02:51:36.726Z,16.65
2017-06-24T02:51:50.160Z,16.69
2017-06-24T02:52:03.614Z,16.66
2017-06-24T02:52:17.099Z,16.57
2017-06-24T02:52:30.577Z,16.62